createdAt,value
2018-11-22T12:17:16.855Z,2.40
2018-11-22T12:19:45.228Z,2.40
2018-11-22T12:22:13.608Z,2.40
2018-11-22T12:24:41.978Z,2.30
2018-11-22T12:27:10.338Z,2.30
2018-11-22T12:29:38.780Z,2.20
2018-11-22T12:32:14.770Z,2.30
2018-11-22T12:34:53.436Z,2.30
2018-11-22T12:37:27.161Z,2.30
2018-11-22T12:39:55.488Z,2.30
2018-11-22T12:42:23.863Z,2.30
2018-11-22T12:44:52.425Z,2.30
2018-11-22T12:47:20.734Z,2.30
2018-11-22T12:49:49.195Z,2.30
2018-11-22T12:52:17.552Z,2.20
2018-11-22T12:54:45.862Z,2.30
2018-11-22T12:57:14.229Z,2.30
2018-11-22T12:59:42.544Z,2.30
2018-11-22T13:02:11.422Z,2.30
2018-11-22T13:04:39.341Z,2.30
2018-11-22T13:07:08.295Z,2.30
2018-11-22T13:09:36.658Z,2.30
2018-11-22T13:12:05.512Z,2.30
2018-11-22T13:14:33.903Z,2.30
2018-11-22T13:17:02.208Z,2.30
2018-11-22T13:19:30.564Z,2.30
2018-11-22T13:21:58.845Z,2.30
2018-11-22T13:24:27.218Z,2.30
2018-11-22T13:26:55.524Z,2.30
2018-11-22T13:29:23.873Z,2.30
2018-11-22T13:31:52.172Z,2.30
2018-11-22T13:34:20.686Z,2.30
2018-11-22T13:36:49.114Z,2.20
2018-11-22T13:39:18.347Z,2.10
2018-11-22T13:41:46.659Z,2.20
2018-11-22T13:44:14.946Z,2.20
2018-11-22T13:46:43.264Z,2.20
2018-11-22T13:49:11.592Z,2.10
2018-11-22T13:51:40.221Z,2.10
2018-11-22T13:54:08.530Z,2.10
2018-11-22T13:56:36.879Z,2.10
2018-11-22T13:59:11.581Z,2.20
2018-11-22T14:01:39.894Z,2.20
2018-11-22T14:04:08.196Z,2.20
2018-11-22T14:06:36.511Z,2.20
2018-11-22T14:09:07.193Z,2.20
2018-11-22T14:11:35.511Z,2.20
2018-11-22T14:14:03.835Z,2.20
2018-11-22T14:16:32.149Z,2.10
2018-11-22T14:19:00.439Z,2.20
2018-11-22T14:21:28.842Z,2.10
2018-11-22T14:23:57.192Z,2.10
2018-11-22T14:26:25.527Z,2.10
2018-11-22T14:28:53.877Z,2.10
2018-11-22T14:31:22.187Z,2.10
2018-11-22T14:33:50.759Z,2.10
2018-11-22T14:36:19.105Z,2.10
2018-11-22T14:38:47.416Z,2.10
2018-11-22T14:41:15.748Z,2.10
2018-11-22T14:43:44.138Z,2.00
2018-11-22T14:46:12.430Z,2.10
2018-11-22T14:48:40.794Z,2.00
2018-11-22T14:51:15.800Z,2.00
2018-11-22T14:53:44.233Z,2.10
2018-11-22T14:56:12.584Z,2.10
2018-11-22T14:58:40.915Z,2.00
2018-11-22T15:01:09.234Z,2.00
2018-11-22T15:03:37.625Z,2.00
2018-11-22T15:06:05.973Z,2.00
2018-11-22T15:08:34.287Z,2.00
2018-11-22T15:11:02.639Z,1.90
2018-11-22T15:13:31.033Z,2.00
2018-11-22T15:15:59.447Z,2.00
2018-11-22T15:18:27.772Z,1.90
2018-11-22T15:21:01.117Z,2.00
2018-11-22T15:23:24.476Z,2.00
2018-11-22T15:25:52.831Z,2.00
2018-11-22T15:28:21.308Z,2.00
2018-11-22T15:30:49.657Z,2.00
2018-11-22T15:33:17.977Z,2.00
2018-11-22T15:35:46.545Z,1.90
2018-11-22T15:38:14.871Z,1.90
2018-11-22T15:40:43.344Z,1.90
2018-11-22T15:43:12.941Z,1.90
2018-11-22T15:45:41.339Z,2.00
2018-11-22T15:48:09.759Z,1.90
2018-11-22T15:50:38.100Z,1.40
2018-11-22T15:53:06.498Z,1.90
2018-11-22T15:55:34.811Z,1.90
2018-11-22T15:58:03.161Z,1.90
2018-11-22T16:00:32.899Z,1.90
2018-11-22T16:03:01.670Z,1.90
2018-11-22T16:05:30.559Z,2.00
2018-11-22T16:07:58.952Z,1.90
2018-11-22T16:10:28.559Z,1.90
2018-11-22T16:12:58.384Z,1.90
2018-11-22T16:15:34.137Z,1.90
2018-11-22T16:18:02.604Z,2.00
2018-11-22T16:20:30.971Z,2.10
2018-11-22T16:22:59.308Z,2.10
2018-11-22T16:25:27.591Z,2.10
2018-11-22T16:27:55.908Z,2.10
2018-11-22T16:30:25.478Z,2.10
2018-11-22T16:32:54.084Z,2.20
2018-11-22T16:35:23.082Z,2.20
2018-11-22T16:37:51.521Z,2.10
2018-11-22T16:40:22.071Z,2.20
2018-11-22T16:42:51.404Z,2.20
2018-11-22T16:45:28.111Z,2.20
2018-11-22T16:47:57.264Z,2.20
2018-11-22T16:50:26.865Z,2.20
2018-11-22T16:52:55.394Z,2.20
2018-11-22T16:55:24.486Z,2.10
2018-11-22T16:57:53.856Z,2.20
2018-11-22T17:00:26.433Z,2.20
2018-11-22T17:02:55.934Z,2.20
2018-11-22T17:05:24.619Z,2.20
2018-11-22T17:07:53.395Z,2.20
2018-11-22T17:10:23.942Z,2.30
2018-11-22T17:12:53.531Z,2.20
2018-11-22T17:15:23.331Z,2.20
2018-11-22T17:17:52.060Z,2.20
2018-11-22T17:20:21.452Z,2.20
2018-11-22T17:22:50.439Z,2.20
2018-11-22T17:25:19.949Z,2.20
2018-11-22T17:27:49.708Z,2.20
2018-11-22T17:30:19.232Z,2.20
2018-11-22T17:32:47.664Z,2.20
2018-11-22T17:35:24.678Z,2.20
2018-11-22T17:37:53.907Z,2.20
2018-11-22T17:40:25.443Z,2.30
2018-11-22T17:42:53.836Z,2.40
2018-11-22T17:45:23.443Z,2.30
2018-11-22T17:47:51.872Z,2.30
2018-11-22T17:50:20.916Z,2.30
2018-11-22T17:52:49.281Z,2.30
2018-11-22T17:55:19.014Z,2.20
2018-11-22T17:57:47.307Z,2.20
2018-11-22T18:00:18.099Z,2.20
2018-11-22T18:02:47.859Z,2.10
2018-11-22T18:05:16.275Z,2.10
2018-11-22T18:07:44.685Z,2.10
2018-11-22T18:10:15.534Z,2.10
2018-11-22T18:12:44.814Z,2.00
2018-11-22T18:15:14.212Z,1.90
2018-11-22T18:17:42.576Z,2.00
2018-11-22T18:20:14.476Z,1.90
2018-11-22T18:22:42.962Z,1.90
2018-11-22T18:25:17.267Z,1.90
2018-11-22T18:27:45.737Z,1.90
2018-11-22T18:30:16.303Z,2.00
2018-11-22T18:32:45.770Z,2.10
2018-11-22T18:35:14.607Z,2.10
2018-11-22T18:37:43.328Z,2.00
2018-11-22T18:40:13.882Z,2.00
2018-11-22T18:42:42.558Z,1.90
2018-11-22T18:45:12.731Z,1.90
2018-11-22T18:47:41.583Z,1.90
2018-11-22T18:50:15.618Z,1.90
2018-11-22T18:52:42.724Z,1.90
2018-11-22T18:55:11.588Z,1.90
2018-11-22T18:57:40.347Z,1.80
2018-11-22T19:00:14.004Z,1.80
2018-11-22T19:02:42.401Z,1.80
2018-11-22T19:05:12.170Z,1.70
2018-11-22T19:07:41.549Z,1.80
2018-11-22T19:10:14.499Z,1.70
2018-11-22T19:12:44.706Z,1.80
2018-11-22T19:15:14.239Z,1.90
2018-11-22T19:17:42.655Z,2.00
2018-11-22T19:20:17.645Z,2.00
2018-11-22T19:22:47.057Z,2.10
2018-11-22T19:25:15.637Z,2.10
2018-11-22T19:27:44.564Z,2.00
2018-11-22T19:30:15.338Z,2.00
2018-11-22T19:32:51.153Z,2.00
2018-11-22T19:35:20.823Z,1.90
2018-11-22T19:37:49.779Z,1.90
2018-11-22T19:40:26.998Z,1.90
2018-11-22T19:42:56.628Z,1.90
2018-11-22T19:45:26.394Z,1.90
2018-11-22T19:47:54.786Z,1.90
2018-11-22T19:50:24.302Z,1.90
2018-11-22T19:52:53.245Z,1.80
2018-11-22T19:55:23.938Z,1.80
2018-11-22T19:57:53.766Z,1.80
2018-11-22T20:00:22.956Z,1.80
2018-11-22T20:02:52.416Z,1.70
2018-11-22T20:05:21.796Z,1.60
2018-11-22T20:07:51.930Z,1.60
2018-11-22T20:10:23.805Z,1.70
2018-11-22T20:12:52.296Z,1.70
2018-11-22T20:15:20.860Z,1.70
2018-11-22T20:17:50.034Z,1.70
2018-11-22T20:20:19.453Z,1.70
2018-11-22T20:22:47.861Z,1.70
2018-11-22T20:25:16.274Z,1.70
2018-11-22T20:27:44.867Z,1.70
2018-11-22T20:30:16.649Z,1.70
2018-11-22T20:32:45.774Z,1.70
2018-11-22T20:35:16.022Z,1.60
2018-11-22T20:37:45.554Z,1.50
2018-11-22T20:40:16.213Z,1.50
2018-11-22T20:42:44.805Z,1.50
2018-11-22T20:45:15.142Z,1.60
2018-11-22T20:47:44.449Z,1.60
2018-11-22T20:50:15.081Z,1.60
2018-11-22T20:52:43.560Z,1.50
2018-11-22T20:55:14.884Z,1.60
2018-11-22T20:57:44.091Z,1.60
2018-11-22T21:00:15.162Z,1.60
2018-11-22T21:02:43.538Z,1.60
2018-11-22T21:05:12.717Z,1.50
2018-11-22T21:07:42.062Z,1.50
2018-11-22T21:10:13.101Z,1.50
2018-11-22T21:12:41.947Z,1.60
2018-11-22T21:15:14.329Z,1.60
2018-11-22T21:17:43.518Z,1.60
2018-11-22T21:20:14.225Z,1.60
2018-11-22T21:22:42.833Z,1.60
2018-11-22T21:25:13.044Z,1.60
2018-11-22T21:27:41.661Z,1.50
2018-11-22T21:30:16.098Z,1.60
2018-11-22T21:32:45.489Z,1.50
2018-11-22T21:35:14.438Z,1.50
2018-11-22T21:37:43.245Z,1.50
2018-11-22T21:40:12.557Z,1.50
2018-11-22T21:42:41.032Z,1.40
2018-11-22T21:45:12.204Z,1.50
2018-11-22T21:47:41.178Z,1.50
2018-11-22T21:50:11.474Z,1.50
2018-11-22T21:52:40.020Z,1.50
2018-11-22T21:55:11.050Z,1.50
2018-11-22T21:57:40.447Z,1.50
2018-11-22T22:00:20.456Z,1.50
2018-11-22T22:02:52.642Z,1.50
2018-11-22T22:05:19.121Z,1.40
2018-11-22T22:07:47.511Z,1.40
2018-11-22T22:10:16.042Z,1.40
2018-11-22T22:12:44.434Z,1.40
2018-11-22T22:15:15.088Z,1.30
2018-11-22T22:17:44.350Z,1.30
2018-11-22T22:20:16.313Z,1.30
2018-11-22T22:22:44.742Z,1.40
2018-11-22T22:25:15.517Z,1.40
2018-11-22T22:27:44.220Z,1.40
2018-11-22T22:30:14.730Z,1.40
2018-11-22T22:32:43.845Z,1.60
2018-11-22T22:35:12.259Z,1.40
2018-11-22T22:37:40.752Z,1.40
2018-11-22T22:40:13.180Z,1.40
2018-11-22T22:42:43.219Z,1.40
2018-11-22T22:45:12.590Z,1.40
2018-11-22T22:47:41.404Z,1.40
2018-11-22T22:50:12.171Z,1.40
2018-11-22T22:52:40.679Z,1.40
2018-11-22T22:55:09.806Z,1.40
2018-11-22T22:57:38.280Z,1.40
2018-11-22T23:00:15.867Z,1.50
2018-11-22T23:02:44.266Z,1.40
2018-11-22T23:05:12.722Z,1.50
2018-11-22T23:07:41.220Z,1.50
2018-11-22T23:10:09.703Z,1.60
2018-11-22T23:12:38.248Z,1.70
2018-11-22T23:15:09.827Z,1.60
2018-11-22T23:17:38.686Z,1.60
2018-11-22T23:20:09.967Z,1.60
2018-11-22T23:22:38.731Z,1.70
2018-11-22T23:25:07.663Z,1.60
2018-11-22T23:27:36.198Z,1.60
2018-11-22T23:30:06.474Z,1.60
2018-11-22T23:32:34.866Z,1.60
2018-11-22T23:35:03.283Z,1.60
2018-11-22T23:37:31.817Z,1.60
2018-11-22T23:40:00.255Z,1.60
2018-11-22T23:42:28.660Z,1.60
2018-11-22T23:44:57.042Z,1.60
2018-11-22T23:47:25.397Z,1.60
2018-11-22T23:49:53.765Z,1.60
2018-11-22T23:52:22.204Z,1.70
2018-11-22T23:54:50.629Z,1.70
2018-11-22T23:57:19.030Z,1.70
2018-11-22T23:59:47.450Z,1.70
